WMKN/TGG METAR and TAF weather

Enter ICAO airport designator
Station Type Date Time Source
WMKN METAR 2019/08/18 08:00 UTC NOAA

WMKN 180800Z VRB06KT 9999 FEW018 BKN300 31/26 Q1009


Station Type Date Time Source
WMKN Decoded METAR 2019/08/18 08:00 UTC NOAA

Station name not available
Aug 18, 2019 - 04:00 AM EDT / 2019.08.18 0800 UTC
Wind: Variable at 7 MPH (6 KT):0
Visibility: greater than 7 mile(s):0
Sky conditions: mostly cloudy
Temperature: 87 F (31 C)
Heat index: 99.7 F (37.6 C):1
Dew Point: 78 F (26 C)
Relative Humidity: 74%
Pressure (altimeter): 29.80 in. Hg (1009 hPa)
ob: WMKN 180800Z VRB06KT 9999 FEW018 BKN300 31/26 Q1009
cycle: 8

Station Type Date Time Source
WMKN TAF 2019/08/18 06:00 UTC NOAA

TAF WMKN 180500Z 1806/1906 21006KT 9999 FEW018
TEMPO 1810/1814 7000 -TSRA FEW010 FEW017CB SCT020

Example: see airport list